Time;durP1;ratioP1;P1;durP2;ratioP2;P2;SDS_P1;SDS_P2;PMS_P1;PMS_P2;Temp;Humidity;BMP_temperature;BMP_pressure;BME280_temperature;BME280_humidity;BME280_pressure;Samples;Min_cycle;Max_cycle;Signal;HPM_P1;HPM_P2
2023/05/14 00:01:58;;;;;;;14.30;13.00;;;14.30;99.90;;;;;;5051214;28;20186;-73
2023/05/14 00:04:24;;;;;;;14.03;12.83;;;14.20;99.90;;;;;;5047043;28;20323;-73
2023/05/14 00:06:49;;;;;;;13.80;12.70;;;14.20;99.90;;;;;;5032386;28;20251;-73
2023/05/14 00:09:15;;;;;;;14.40;13.30;;;14.20;99.90;;;;;;5030762;28;20208;-73
2023/05/14 00:11:41;;;;;;;14.10;13.00;;;14.20;99.90;;;;;;5032555;28;20174;-73
2023/05/14 00:14:07;;;;;;;14.63;13.47;;;14.20;99.90;;;;;;5031837;28;20494;-73
2023/05/14 00:16:33;;;;;;;14.87;13.67;;;14.20;99.90;;;;;;5032426;28;20185;-73
2023/05/14 00:18:58;;;;;;;14.13;13.03;;;14.20;99.90;;;;;;5051969;28;20174;-73
2023/05/14 00:21:24;;;;;;;13.40;12.10;;;14.20;99.90;;;;;;5051776;28;20194;-73
2023/05/14 00:23:50;;;;;;;13.90;12.90;;;14.20;99.90;;;;;;5032800;28;20653;-73
2023/05/14 00:26:15;;;;;;;13.80;12.50;;;14.10;99.90;;;;;;5031663;28;20190;-73
2023/05/14 00:28:41;;;;;;;12.67;11.57;;;14.10;99.90;;;;;;5052338;28;20198;-73
2023/05/14 00:31:07;;;;;;;13.20;12.00;;;14.10;99.90;;;;;;5050441;28;20189;-73
2023/05/14 00:33:33;;;;;;;13.50;12.50;;;14.10;99.90;;;;;;5051844;28;20624;-73
2023/05/14 00:35:58;;;;;;;12.53;11.63;;;14.00;99.90;;;;;;5049868;28;20216;-73
2023/05/14 00:38:26;;;;;;;12.60;11.57;;;14.00;99.90;;;;;;5051554;28;20179;-73
2023/05/14 00:40:52;;;;;;;13.50;12.40;;;14.00;99.90;;;;;;5052073;28;20184;-73
2023/05/14 00:43:21;;;;;;;13.40;12.33;;;13.90;99.90;;;;;;5051180;28;20402;-73
2023/05/14 00:45:52;;;;;;;13.83;12.73;;;13.90;99.90;;;;;;5052010;28;20185;-73
2023/05/14 00:48:19;;;;;;;12.30;11.40;;;13.80;99.90;;;;;;5050240;28;20431;-73
2023/05/14 00:50:45;;;;;;;13.10;12.10;;;13.80;99.90;;;;;;5051704;28;20450;-73
2023/05/14 00:53:11;;;;;;;13.07;11.97;;;13.80;99.90;;;;;;5051250;28;20794;-73
2023/05/14 00:55:38;;;;;;;14.00;12.80;;;13.80;99.90;;;;;;5052190;28;20542;-73
2023/05/14 00:58:09;;;;;;;14.20;13.10;;;13.80;99.90;;;;;;5052235;28;20395;-73
2023/05/14 01:00:36;;;;;;;12.90;11.80;;;13.80;99.90;;;;;;5052144;28;20446;-73
2023/05/14 01:03:03;;;;;;;13.40;12.20;;;13.70;99.90;;;;;;5052227;28;20415;-73
2023/05/14 01:06:02;;;;;;;12.23;11.23;;;13.70;99.90;;;;;;5050676;28;20422;-73
2023/05/14 01:09:07;;;;;;;13.07;11.87;;;13.60;99.90;;;;;;4964447;28;20439;-73
2023/05/14 01:11:43;;;;;;;13.40;12.40;;;13.60;99.90;;;;;;5052068;28;20441;-73
2023/05/14 01:14:59;;;;;;;12.43;11.30;;;13.60;99.90;;;;;;5050147;28;20503;-73
2023/05/14 01:17:29;;;;;;;12.20;11.10;;;13.50;99.90;;;;;;5032729;28;20426;-73
2023/05/14 01:19:56;;;;;;;12.60;11.60;;;13.50;99.90;;;;;;5052563;28;20650;-72
2023/05/14 01:22:22;;;;;;;13.20;12.20;;;13.50;99.90;;;;;;5052848;28;20924;-73
2023/05/14 01:24:48;;;;;;;12.10;11.00;;;13.50;99.90;;;;;;5047986;28;20442;-73
2023/05/14 01:27:22;;;;;;;12.80;11.80;;;13.50;99.90;;;;;;5054510;28;20185;-74
2023/05/14 01:30:10;;;;;;;12.77;11.77;;;13.40;99.90;;;;;;5051559;28;20840;-73
2023/05/14 01:32:37;;;;;;;13.73;12.57;;;13.50;99.90;;;;;;5039954;28;20439;-73
2023/05/14 01:35:04;;;;;;;13.67;12.60;;;13.40;99.90;;;;;;5055000;28;20531;-73
2023/05/14 01:37:31;;;;;;;13.93;12.70;;;13.40;99.90;;;;;;5054321;28;20461;-73
2023/05/14 01:39:57;;;;;;;13.40;12.27;;;13.40;99.90;;;;;;5055040;28;20395;-73
2023/05/14 01:42:24;;;;;;;13.67;12.47;;;13.40;99.90;;;;;;5054128;28;20407;-73
2023/05/14 01:44:50;;;;;;;12.73;11.87;;;13.40;99.90;;;;;;5054966;28;20507;-73
2023/05/14 01:47:16;;;;;;;12.10;11.20;;;13.40;99.90;;;;;;5054353;28;20494;-74
2023/05/14 01:49:42;;;;;;;13.30;12.00;;;13.40;99.90;;;;;;5045214;28;20665;-74
2023/05/14 01:52:08;;;;;;;13.90;12.60;;;13.40;99.90;;;;;;5048203;28;20510;-73
2023/05/14 01:54:33;;;;;;;12.80;11.80;;;13.40;99.90;;;;;;5054469;28;20562;-73
2023/05/14 01:56:59;;;;;;;13.80;12.70;;;13.40;99.90;;;;;;5055125;28;20204;-73
2023/05/14 01:59:25;;;;;;;13.27;12.27;;;13.40;99.90;;;;;;5054409;28;20185;-73
2023/05/14 02:01:50;;;;;;;13.23;12.17;;;13.40;99.90;;;;;;5055117;28;20176;-73
2023/05/14 02:04:16;;;;;;;13.20;11.83;;;13.40;99.90;;;;;;5054300;28;20169;-73
2023/05/14 02:06:42;;;;;;;14.03;12.83;;;13.30;99.90;;;;;;5054937;28;20173;-73
2023/05/14 02:09:08;;;;;;;13.83;12.73;;;13.30;99.90;;;;;;5054870;28;20408;-73
2023/05/14 02:11:34;;;;;;;13.03;11.93;;;13.30;99.90;;;;;;5053093;28;20188;-73
2023/05/14 02:13:59;;;;;;;12.10;11.30;;;13.30;99.90;;;;;;5053356;28;20656;-73
2023/05/14 02:16:25;;;;;;;13.00;12.00;;;13.30;99.90;;;;;;5053547;28;20406;-73
2023/05/14 02:18:51;;;;;;;12.70;11.60;;;13.30;99.90;;;;;;5053061;28;20180;-73
2023/05/14 02:21:17;;;;;;;11.97;11.07;;;13.30;99.90;;;;;;5052771;28;20212;-73
2023/05/14 02:23:43;;;;;;;12.60;11.60;;;13.30;99.90;;;;;;5053976;28;20639;-73
2023/05/14 02:26:10;;;;;;;12.60;11.67;;;13.20;99.90;;;;;;5054167;28;20184;-73
2023/05/14 02:28:35;;;;;;;12.83;11.77;;;13.20;99.90;;;;;;5053385;28;20442;-73
2023/05/14 02:31:01;;;;;;;12.40;11.50;;;13.20;99.90;;;;;;5053514;28;20783;-73
2023/05/14 02:33:27;;;;;;;12.77;11.63;;;13.20;99.90;;;;;;5052952;28;20625;-73
2023/05/14 02:35:53;;;;;;;13.67;12.57;;;13.20;99.90;;;;;;5035780;28;20204;-73
2023/05/14 02:38:19;;;;;;;12.80;11.50;;;13.10;99.90;;;;;;5034150;28;20177;-73
2023/05/14 02:40:45;;;;;;;11.90;10.70;;;13.10;99.90;;;;;;5034096;28;20469;-73
2023/05/14 02:43:10;;;;;;;13.50;12.27;;;13.10;99.90;;;;;;5034031;28;20415;-73
2023/05/14 02:45:36;;;;;;;14.13;12.63;;;13.10;99.90;;;;;;5033097;28;20581;-73
2023/05/14 02:48:02;;;;;;;12.13;11.23;;;13.10;99.90;;;;;;5033886;28;20173;-73
2023/05/14 02:50:28;;;;;;;12.80;11.50;;;13.10;99.90;;;;;;5043825;28;20184;-73
2023/05/14 02:52:53;;;;;;;14.70;13.30;;;13.10;99.90;;;;;;5053308;28;20350;-73
2023/05/14 02:55:20;;;;;;;14.43;13.13;;;13.10;99.90;;;;;;5052789;28;20213;-73
2023/05/14 02:57:46;;;;;;;12.87;11.90;;;13.00;99.90;;;;;;5053316;28;20634;-73
2023/05/14 03:00:12;;;;;;;14.47;12.90;;;13.00;99.90;;;;;;5052683;28;20432;-73
2023/05/14 03:02:38;;;;;;;12.07;11.20;;;13.00;99.90;;;;;;5051505;28;20195;-73
2023/05/14 03:05:04;;;;;;;12.20;11.10;;;13.00;99.90;;;;;;5052643;28;20438;-73
2023/05/14 03:07:30;;;;;;;12.77;11.57;;;13.00;99.90;;;;;;5052453;28;20203;-73
2023/05/14 03:09:55;;;;;;;12.53;11.57;;;13.00;99.90;;;;;;5053116;28;20491;-73
2023/05/14 03:12:21;;;;;;;12.83;11.83;;;12.90;99.90;;;;;;5052514;28;20184;-73
2023/05/14 03:14:47;;;;;;;13.00;12.00;;;12.90;99.90;;;;;;5035358;28;20300;-73
2023/05/14 03:17:13;;;;;;;13.53;12.53;;;12.90;99.90;;;;;;5052411;28;20419;-74
2023/05/14 03:19:38;;;;;;;13.00;11.80;;;12.90;99.90;;;;;;5027729;28;20199;-73
2023/05/14 03:22:04;;;;;;;14.37;13.07;;;12.90;99.90;;;;;;5033165;28;20186;-73
2023/05/14 03:24:30;;;;;;;13.43;12.40;;;12.90;99.90;;;;;;5032321;28;20223;-73
2023/05/14 03:26:56;;;;;;;13.90;12.80;;;12.90;99.90;;;;;;5015565;28;20597;-73
2023/05/14 03:29:21;;;;;;;13.93;12.67;;;12.90;99.90;;;;;;5044296;28;20434;-73
2023/05/14 03:31:48;;;;;;;11.77;10.77;;;12.90;99.90;;;;;;5052096;28;20190;-73
2023/05/14 03:34:14;;;;;;;14.27;13.10;;;12.90;99.90;;;;;;5052910;28;20738;-73
2023/05/14 03:36:40;;;;;;;14.73;13.63;;;12.90;99.90;;;;;;5052304;28;20504;-73
2023/05/14 03:39:06;;;;;;;12.87;11.87;;;12.80;99.90;;;;;;5052847;28;20170;-73
2023/05/14 03:41:32;;;;;;;14.27;12.87;;;12.80;99.90;;;;;;5051968;28;20660;-73
2023/05/14 03:43:57;;;;;;;14.67;13.47;;;12.80;99.90;;;;;;5051817;28;20190;-73
2023/05/14 03:46:23;;;;;;;15.23;13.90;;;12.80;99.90;;;;;;5051121;28;20773;-73
2023/05/14 03:48:49;;;;;;;15.07;13.67;;;12.80;99.90;;;;;;5032416;28;20233;-73
2023/05/14 03:51:15;;;;;;;15.10;13.90;;;12.80;99.90;;;;;;5046255;28;20231;-73
2023/05/14 03:53:40;;;;;;;15.47;14.07;;;12.80;99.90;;;;;;5051003;28;20183;-73
2023/05/14 03:56:06;;;;;;;14.90;13.70;;;12.80;99.90;;;;;;5051600;28;20590;-73
2023/05/14 03:58:32;;;;;;;15.77;14.37;;;12.80;99.90;;;;;;5051706;28;20176;-74
2023/05/14 04:00:59;;;;;;;16.20;14.50;;;12.80;99.90;;;;;;5052422;28;20187;-73
2023/05/14 04:03:24;;;;;;;14.17;12.97;;;12.80;99.90;;;;;;5051619;28;20175;-73
2023/05/14 04:05:50;;;;;;;14.17;12.97;;;12.80;99.90;;;;;;5052708;28;20420;-74
2023/05/14 04:08:16;;;;;;;14.80;13.60;;;12.80;99.90;;;;;;5052373;28;20585;-73
2023/05/14 04:10:42;;;;;;;14.67;13.47;;;12.80;99.90;;;;;;5051657;28;20515;-74
2023/05/14 04:13:08;;;;;;;15.50;14.20;;;12.80;99.90;;;;;;5052283;28;20209;-73
2023/05/14 04:15:34;;;;;;;14.70;13.60;;;12.80;99.90;;;;;;5047105;28;20951;-74
2023/05/14 04:18:00;;;;;;;15.10;13.80;;;12.80;99.90;;;;;;5047531;28;20182;-73
2023/05/14 04:20:26;;;;;;;15.00;13.80;;;12.80;99.90;;;;;;5051303;28;20399;-74
2023/05/14 04:22:53;;;;;;;15.17;13.87;;;12.80;99.90;;;;;;5052142;28;20423;-74
2023/05/14 04:25:18;;;;;;;15.00;13.80;;;12.90;99.90;;;;;;5052020;28;20428;-74
2023/05/14 04:27:44;;;;;;;14.70;13.20;;;12.90;99.90;;;;;;5051595;28;20924;-73
2023/05/14 04:30:10;;;;;;;13.90;12.80;;;12.80;99.90;;;;;;5052106;28;20402;-74
2023/05/14 04:32:36;;;;;;;12.83;11.80;;;12.90;99.90;;;;;;5051244;28;20497;-74
2023/05/14 04:35:03;;;;;;;13.73;12.63;;;12.80;99.90;;;;;;5034331;28;20544;-73
2023/05/14 04:37:30;;;;;;;13.77;12.70;;;12.80;99.90;;;;;;5051255;28;20464;-73
2023/05/14 04:39:56;;;;;;;13.37;12.37;;;12.90;99.90;;;;;;5050255;28;20486;-73
2023/05/14 04:42:22;;;;;;;12.60;11.70;;;12.90;99.90;;;;;;5051500;28;20457;-74
2023/05/14 04:44:47;;;;;;;13.53;12.53;;;12.90;99.90;;;;;;5051683;28;20174;-73
2023/05/14 04:47:13;;;;;;;14.10;13.00;;;12.90;99.90;;;;;;5034187;28;20185;-73
2023/05/14 04:49:39;;;;;;;15.07;13.57;;;12.90;99.90;;;;;;5031238;28;20179;-74
2023/05/14 04:52:05;;;;;;;14.60;13.40;;;12.80;99.90;;;;;;5035764;28;20228;-73
2023/05/14 04:54:31;;;;;;;14.63;13.33;;;12.80;99.90;;;;;;5051482;28;20460;-74
2023/05/14 04:57:01;;;;;;;16.17;14.57;;;12.90;99.90;;;;;;5056232;28;20466;-74
2023/05/14 04:59:30;;;;;;;21.17;18.97;;;12.90;99.90;;;;;;5055722;28;20166;-74
2023/05/14 05:01:56;;;;;;;13.67;12.50;;;12.90;99.90;;;;;;5056494;28;20822;-74
2023/05/14 05:04:23;;;;;;;13.40;12.40;;;12.90;99.90;;;;;;5069557;28;20433;-74
2023/05/14 05:06:51;;;;;;;14.87;13.57;;;12.90;99.90;;;;;;5076151;28;20402;-74
2023/05/14 05:09:17;;;;;;;14.20;12.87;;;13.00;99.90;;;;;;5076088;28;20504;-74
2023/05/14 05:11:43;;;;;;;13.40;12.40;;;13.00;99.90;;;;;;5073336;28;21055;-74
2023/05/14 05:14:09;;;;;;;15.20;13.90;;;13.00;99.90;;;;;;5074594;28;20518;-74
2023/05/14 05:16:35;;;;;;;14.43;13.00;;;13.00;99.90;;;;;;5063207;28;20196;-74
2023/05/14 05:19:01;;;;;;;13.40;12.30;;;13.00;99.90;;;;;;5056011;28;20171;-74
2023/05/14 05:21:27;;;;;;;14.07;12.77;;;13.00;99.90;;;;;;5056935;28;20446;-75
2023/05/14 05:23:52;;;;;;;14.43;13.23;;;13.10;99.90;;;;;;5073671;28;20545;-74
2023/05/14 05:26:18;;;;;;;14.53;13.33;;;13.10;99.90;;;;;;5075639;28;20457;-74
2023/05/14 05:28:44;;;;;;;14.57;13.27;;;13.00;99.90;;;;;;5066720;28;20184;-74
2023/05/14 05:31:10;;;;;;;14.00;12.70;;;13.10;99.90;;;;;;5067673;28;20635;-74
2023/05/14 05:33:35;;;;;;;14.50;13.30;;;13.20;99.90;;;;;;5055834;28;20179;-74
2023/05/14 05:36:01;;;;;;;14.77;13.57;;;13.20;99.90;;;;;;5074913;28;20695;-75
2023/05/14 05:38:27;;;;;;;13.67;12.47;;;13.30;99.90;;;;;;5058831;28;20259;-73
2023/05/14 05:40:53;;;;;;;13.90;12.80;;;13.40;99.90;;;;;;5055170;28;20419;-74
2023/05/14 05:43:18;;;;;;;13.80;12.43;;;13.50;99.90;;;;;;5055012;28;20176;-74
2023/05/14 05:45:45;;;;;;;13.57;12.03;;;13.60;99.90;;;;;;5057209;28;20484;-73
2023/05/14 05:48:10;;;;;;;15.13;13.70;;;13.70;99.90;;;;;;5053803;28;20701;-74
2023/05/14 05:50:36;;;;;;;14.80;13.50;;;13.60;99.90;;;;;;5053259;28;20416;-73
2023/05/14 05:53:02;;;;;;;14.73;13.30;;;13.60;99.90;;;;;;5038506;28;20575;-73
2023/05/14 05:55:29;;;;;;;13.30;12.10;;;13.60;99.90;;;;;;5047551;28;20229;-73
2023/05/14 05:57:55;;;;;;;14.00;12.80;;;13.70;99.90;;;;;;5055157;28;20404;-73
2023/05/14 06:00:20;;;;;;;13.67;12.40;;;13.70;99.90;;;;;;5054959;28;20413;-74
2023/05/14 06:02:48;;;;;;;13.80;12.53;;;13.70;99.90;;;;;;5054398;28;20404;-73
2023/05/14 06:05:14;;;;;;;14.37;13.13;;;13.80;99.90;;;;;;5054953;28;20453;-73
2023/05/14 06:07:39;;;;;;;14.80;13.40;;;13.80;99.90;;;;;;5053339;28;20408;-73
2023/05/14 06:10:06;;;;;;;14.70;13.17;;;13.80;99.90;;;;;;5052375;28;20253;-73
2023/05/14 06:12:31;;;;;;;14.37;12.97;;;13.90;99.90;;;;;;5045539;28;20176;-73
2023/05/14 06:14:57;;;;;;;14.93;13.33;;;13.90;99.90;;;;;;5054372;28;20452;-74
2023/05/14 06:17:24;;;;;;;13.63;12.43;;;14.00;99.90;;;;;;5053714;28;20533;-73
2023/05/14 06:19:50;;;;;;;14.57;13.17;;;14.10;99.90;;;;;;5050341;28;20181;-73
2023/05/14 06:22:16;;;;;;;14.10;12.70;;;14.10;99.90;;;;;;5053823;28;20516;-74
2023/05/14 06:24:42;;;;;;;13.80;12.70;;;14.10;99.90;;;;;;5051628;28;20522;-73
2023/05/14 06:27:10;;;;;;;13.60;12.23;;;14.10;99.90;;;;;;5054452;28;20485;-73
2023/05/14 06:29:35;;;;;;;13.70;12.50;;;14.10;99.90;;;;;;5051432;28;20187;-73
2023/05/14 06:32:04;;;;;;;12.23;11.30;;;14.10;99.90;;;;;;5034546;28;20738;-73
2023/05/14 06:34:30;;;;;;;12.70;11.60;;;14.20;99.90;;;;;;5016213;28;20895;-74
2023/05/14 06:36:56;;;;;;;12.27;11.27;;;14.30;99.90;;;;;;5034136;28;20508;-75
2023/05/14 06:39:23;;;;;;;12.90;11.80;;;14.40;99.90;;;;;;5034449;28;20409;-75
2023/05/14 06:41:49;;;;;;;12.77;11.67;;;14.50;99.90;;;;;;5033790;28;20390;-75
2023/05/14 06:44:18;;;;;;;12.70;11.60;;;14.60;99.90;;;;;;5034334;28;20777;-78
2023/05/14 06:46:43;;;;;;;14.30;13.17;;;14.70;99.90;;;;;;5033532;28;20455;-77
2023/05/14 06:49:09;;;;;;;13.23;12.23;;;15.00;99.90;;;;;;5052014;28;20457;-77
2023/05/14 06:51:35;;;;;;;13.47;12.37;;;15.40;99.90;;;;;;5047784;28;20231;-76
2023/05/14 06:54:01;;;;;;;13.20;12.20;;;15.80;99.90;;;;;;5036100;28;20216;-77
2023/05/14 06:56:26;;;;;;;14.33;13.23;;;16.10;99.90;;;;;;5047099;28;20209;-76
2023/05/14 06:58:52;;;;;;;13.40;12.40;;;16.20;99.90;;;;;;5022774;28;20212;-77
2023/05/14 07:01:18;;;;;;;13.83;12.73;;;16.40;99.90;;;;;;5030003;28;20417;-76
2023/05/14 07:03:44;;;;;;;13.27;12.07;;;16.50;99.90;;;;;;5042840;28;20309;-77
2023/05/14 07:06:10;;;;;;;12.83;11.80;;;16.70;99.90;;;;;;5052273;28;20181;-77
2023/05/14 07:08:36;;;;;;;13.10;12.10;;;17.00;99.90;;;;;;5051126;28;20440;-76
2023/05/14 07:11:04;;;;;;;12.17;11.27;;;17.20;99.90;;;;;;5022695;28;20413;-77
2023/05/14 07:13:30;;;;;;;13.50;12.50;;;17.50;99.90;;;;;;5047515;28;20420;-78
2023/05/14 07:15:56;;;;;;;12.20;11.10;;;17.80;99.90;;;;;;5037329;28;20670;-77
2023/05/14 07:18:22;;;;;;;12.03;11.03;;;18.00;99.90;;;;;;5048622;28;20650;-77
2023/05/14 07:20:48;;;;;;;11.87;10.87;;;18.20;99.90;;;;;;5022512;28;20428;-77
2023/05/14 07:23:14;;;;;;;11.20;10.30;;;18.50;99.90;;;;;;5050402;28;20436;-77
2023/05/14 07:25:40;;;;;;;13.73;12.53;;;18.60;99.90;;;;;;5052727;28;20186;-76
2023/05/14 07:28:06;;;;;;;12.40;11.40;;;18.80;99.90;;;;;;5052043;28;20259;-83
2023/05/14 07:30:32;;;;;;;10.00;9.27;;;19.00;99.90;;;;;;5032775;28;20191;-79
2023/05/14 07:32:57;;;;;;;16.10;14.60;;;18.90;99.90;;;;;;5040918;28;20517;-81
2023/05/14 07:35:23;;;;;;;12.63;11.47;;;18.10;99.30;;;;;;5053247;28;20212;-77
2023/05/14 07:37:50;;;;;;;168.03;122.63;;;18.00;99.90;;;;;;5051821;28;20608;-81
2023/05/14 07:40:16;;;;;;;14.73;13.33;;;18.10;99.90;;;;;;5044121;28;20225;-77
2023/05/14 07:42:41;;;;;;;13.40;12.30;;;18.30;99.90;;;;;;5052022;28;20412;-76
2023/05/14 07:45:08;;;;;;;10.70;9.90;;;18.40;99.90;;;;;;5049564;28;20196;-76
2023/05/14 07:47:34;;;;;;;11.63;10.70;;;18.60;99.90;;;;;;5053349;28;20180;-76
2023/05/14 07:50:00;;;;;;;10.40;9.50;;;18.70;99.90;;;;;;5053656;28;20515;-76
2023/05/14 07:52:26;;;;;;;10.40;9.70;;;18.70;99.90;;;;;;5053466;28;20467;-77
2023/05/14 07:54:51;;;;;;;10.50;9.60;;;18.80;99.90;;;;;;5056522;28;20291;-77
2023/05/14 07:57:18;;;;;;;10.70;9.80;;;19.00;99.90;;;;;;5036453;28;20169;-77
2023/05/14 07:59:47;;;;;;;10.60;9.87;;;19.10;99.90;;;;;;5036841;28;20194;-77
2023/05/14 08:02:14;;;;;;;9.97;8.93;;;19.30;99.90;;;;;;5032615;28;20471;-82
2023/05/14 08:04:40;;;;;;;15.73;12.40;;;19.50;99.90;;;;;;5051400;28;20439;-78
2023/05/14 08:07:07;;;;;;;9.83;9.03;;;19.60;99.90;;;;;;5052908;28;20400;-78
2023/05/14 08:09:33;;;;;;;8.60;8.10;;;19.80;99.90;;;;;;5050592;28;20223;-80
2023/05/14 08:11:59;;;;;;;11.50;10.50;;;20.00;99.90;;;;;;5048829;28;20416;-78
2023/05/14 08:14:24;;;;;;;8.73;8.17;;;20.10;99.90;;;;;;5050333;28;20417;-78
2023/05/14 08:16:50;;;;;;;9.27;8.57;;;20.30;99.90;;;;;;5035881;28;20177;-78
2023/05/14 08:19:17;;;;;;;7.50;7.00;;;20.50;99.90;;;;;;5041647;28;20177;-78
2023/05/14 08:21:43;;;;;;;8.70;7.90;;;20.60;99.90;;;;;;5042470;28;20181;-77
2023/05/14 08:24:09;;;;;;;87.40;64.60;;;20.70;97.60;;;;;;5025725;28;20422;-78
2023/05/14 08:26:37;;;;;;;60.93;48.63;;;20.90;99.90;;;;;;5034682;28;20181;-80
2023/05/14 08:29:03;;;;;;;13.93;12.53;;;21.00;98.30;;;;;;5033131;28;20439;-77
2023/05/14 08:31:29;;;;;;;13.03;11.83;;;21.00;96.70;;;;;;5052790;28;20424;-78
2023/05/14 08:33:55;;;;;;;10.83;9.50;;;21.10;95.60;;;;;;5052315;28;20937;-80
2023/05/14 08:36:20;;;;;;;13.27;12.20;;;21.20;98.30;;;;;;5049537;28;20216;-79
2023/05/14 08:38:47;;;;;;;9.67;8.97;;;21.30;97.30;;;;;;5051087;28;20186;-79
2023/05/14 08:41:14;;;;;;;7.50;7.00;;;21.40;96.20;;;;;;5031441;28;20166;-79
2023/05/14 08:44:04;;;;;;;7.80;7.30;;;21.50;94.70;;;;;;5032833;28;20408;-79
2023/05/14 08:46:31;;;;;;;9.10;8.40;;;21.60;94.90;;;;;;5043858;28;20446;-79
2023/05/14 08:49:22;;;;;;;8.50;7.80;;;21.70;95.50;;;;;;5049674;28;21073;-79
2023/05/14 08:51:48;;;;;;;7.23;6.63;;;21.80;94.30;;;;;;5047535;28;20475;-76
2023/05/14 08:54:17;;;;;;;49.63;42.17;;;22.00;94.00;;;;;;5073052;28;20415;-76
2023/05/14 08:56:45;;;;;;;54.10;47.95;;;22.00;93.80;;;;;;5069756;28;20434;-79
2023/05/14 08:59:12;;;;;;;10.10;9.20;;;22.10;94.40;;;;;;5065306;28;20185;-79
2023/05/14 09:01:38;;;;;;;7.47;6.87;;;22.20;93.80;;;;;;5070906;28;20799;-79
2023/05/14 09:04:07;;;;;;;8.43;7.83;;;22.30;93.00;;;;;;5070764;28;20419;-79
2023/05/14 09:06:36;;;;;;;6.70;6.30;;;22.40;93.20;;;;;;5050561;28;20432;-78
2023/05/14 09:09:03;;;;;;;9.10;8.23;;;22.40;92.50;;;;;;5051877;28;20849;-79
2023/05/14 09:11:29;;;;;;;7.83;7.30;;;22.50;93.40;;;;;;5052001;28;20418;-79
2023/05/14 09:13:55;;;;;;;6.10;5.70;;;22.50;90.90;;;;;;5051507;28;20711;-77
2023/05/14 09:16:22;;;;;;;7.60;7.10;;;22.40;89.30;;;;;;5051964;28;20533;-78
2023/05/14 09:18:49;;;;;;;6.47;6.17;;;22.50;90.80;;;;;;5060616;28;20899;-76
2023/05/14 09:21:16;;;;;;;10.37;9.57;;;22.50;91.30;;;;;;5070645;28;20909;-82
2023/05/14 09:23:43;;;;;;;6.53;6.13;;;22.60;92.40;;;;;;5071425;28;20963;-78
2023/05/14 09:26:09;;;;;;;6.80;6.40;;;22.60;91.00;;;;;;5070538;28;20514;-75
2023/05/14 09:28:38;;;;;;;9.00;8.30;;;22.70;91.50;;;;;;5070937;28;20946;-76
2023/05/14 09:31:04;;;;;;;5.70;5.40;;;22.70;90.10;;;;;;5070445;28;20434;-75
2023/05/14 09:33:29;;;;;;;6.47;6.07;;;22.80;88.00;;;;;;5071953;28;20442;-74
2023/05/14 09:36:02;;;;;;;11.80;9.73;;;22.90;88.70;;;;;;5071255;28;20250;-81
2023/05/14 09:38:29;;;;;;;5.50;5.20;;;23.00;90.20;;;;;;5071730;28;20176;-80
2023/05/14 09:40:55;;;;;;;8.33;7.73;;;22.90;86.40;;;;;;5071430;28;20755;-80
2023/05/14 09:43:21;;;;;;;7.70;7.20;;;22.80;90.90;;;;;;5075189;28;20540;-79
2023/05/14 09:45:47;;;;;;;6.90;6.50;;;22.70;91.60;;;;;;5073049;28;20855;-80
2023/05/14 09:48:12;;;;;;;7.57;7.07;;;22.60;89.90;;;;;;5073430;28;20423;-80
2023/05/14 09:50:43;;;;;;;6.70;6.30;;;22.50;90.00;;;;;;5074056;28;20601;-79
2023/05/14 09:53:09;;;;;;;6.50;6.10;;;22.20;89.10;;;;;;5055335;28;20174;-81
2023/05/14 09:55:38;;;;;;;7.13;6.77;;;22.30;86.60;;;;;;5054901;28;20479;-82
2023/05/14 09:58:05;;;;;;;6.20;5.90;;;22.40;85.40;;;;;;5036280;28;20417;-81
2023/05/14 10:00:31;;;;;;;6.50;6.10;;;22.50;83.70;;;;;;5035296;28;20492;-80
2023/05/14 10:02:58;;;;;;;6.00;5.70;;;22.50;85.70;;;;;;5016713;28;20424;-80
2023/05/14 10:05:25;;;;;;;6.60;6.30;;;22.40;83.80;;;;;;5035091;28;20414;-81
2023/05/14 10:07:55;;;;;;;6.10;5.80;;;22.50;77.60;;;;;;5034362;28;20409;-80
2023/05/14 10:10:25;;;;;;;6.10;5.77;;;22.10;71.70;;;;;;5035212;28;20468;-82
2023/05/14 10:12:55;;;;;;;5.93;5.53;;;22.10;82.30;;;;;;5034767;28;20397;-80
2023/05/14 10:15:41;;;;;;;6.37;5.97;;;22.10;83.50;;;;;;5034962;28;20471;-80
2023/05/14 10:18:14;;;;;;;6.33;6.03;;;22.30;81.50;;;;;;5035035;28;20397;-79
2023/05/14 10:20:41;;;;;;;36.67;30.57;;;22.50;79.30;;;;;;5034080;28;20742;-79
2023/05/14 10:23:07;;;;;;;29.90;27.00;;;22.60;80.40;;;;;;5034934;28;20410;-79
2023/05/14 10:25:35;;;;;;;22.07;19.53;;;22.60;75.40;;;;;;5034749;28;20420;-80
2023/05/14 10:28:01;;;;;;;7.70;7.27;;;22.70;77.00;;;;;;5034275;28;20409;-80
2023/05/14 10:30:27;;;;;;;6.47;6.07;;;22.80;73.80;;;;;;5034368;28;20484;-81
2023/05/14 10:33:12;;;;;;;5.00;4.70;;;22.90;76.20;;;;;;5034117;28;20193;-81
2023/05/14 10:36:00;;;;;;;9.80;9.10;;;23.00;77.20;;;;;;5037902;28;20581;-81
2023/05/14 10:38:33;;;;;;;9.37;8.57;;;23.00;76.40;;;;;;5051756;28;20760;-80
2023/05/14 10:41:04;;;;;;;6.40;5.90;;;23.00;76.80;;;;;;5053785;28;20405;-80
2023/05/14 10:43:35;;;;;;;5.70;5.30;;;23.00;78.30;;;;;;5046536;28;20435;-80
2023/05/14 10:46:01;;;;;;;6.27;5.93;;;23.00;71.20;;;;;;5033594;28;21083;-81
2023/05/14 10:48:27;;;;;;;5.83;5.43;;;23.00;75.10;;;;;;5034355;28;20485;-80
2023/05/14 10:50:55;;;;;;;5.93;5.53;;;22.80;72.20;;;;;;5035752;28;20845;-80
2023/05/14 10:53:36;;;;;;;8.20;7.60;;;22.90;73.80;;;;;;5043445;28;20449;-81
2023/05/14 10:56:07;;;;;;;6.03;5.73;;;22.90;75.30;;;;;;5023834;28;20449;-80
2023/05/14 10:58:37;;;;;;;7.30;6.90;;;23.00;75.90;;;;;;5044704;28;20733;-80
2023/05/14 11:01:05;;;;;;;7.20;6.80;;;23.00;74.70;;;;;;5036123;28;20496;-80
2023/05/14 11:03:39;;;;;;;6.00;5.70;;;22.90;74.40;;;;;;5022960;28;20409;-80
2023/05/14 11:06:06;;;;;;;6.87;6.47;;;22.70;73.40;;;;;;5025017;28;20439;-81
2023/05/14 11:08:32;;;;;;;5.40;5.10;;;22.60;72.70;;;;;;5041913;28;20462;-81
2023/05/14 11:10:58;;;;;;;5.50;5.20;;;22.60;72.40;;;;;;5043581;28;20447;-80
2023/05/14 11:13:25;;;;;;;5.27;4.97;;;22.40;70.90;;;;;;5025213;28;20763;-81
2023/05/14 11:15:52;;;;;;;5.93;5.63;;;22.20;71.30;;;;;;5042054;28;20472;-81
2023/05/14 11:18:32;;;;;;;7.72;7.22;;;22.10;72.40;;;;;;5041585;28;20401;-80
2023/05/14 11:21:01;;;;;;;5.60;5.30;;;22.10;70.80;;;;;;5039381;28;20224;-79
2023/05/14 11:23:28;;;;;;;5.60;5.30;;;22.20;69.20;;;;;;5044942;28;20504;-80
2023/05/14 11:25:55;;;;;;;5.83;5.60;;;22.10;68.60;;;;;;5043840;28;20466;-80
2023/05/14 11:28:22;;;;;;;6.20;5.60;;;22.00;69.70;;;;;;5042046;28;20401;-80
2023/05/14 11:30:49;;;;;;;5.83;5.53;;;22.10;69.90;;;;;;5041928;28;20456;-80
2023/05/14 11:33:16;;;;;;;5.90;5.60;;;22.30;70.40;;;;;;5032628;28;20405;-80
2023/05/14 11:35:44;;;;;;;6.33;5.93;;;22.30;71.00;;;;;;5042210;28;20436;-80
2023/05/14 11:38:20;;;;;;;6.17;5.83;;;22.20;71.60;;;;;;5041477;28;20404;-79
2023/05/14 11:40:54;;;;;;;6.40;6.00;;;22.10;72.40;;;;;;5023932;28;20413;-79
2023/05/14 11:43:24;;;;;;;6.97;6.57;;;22.00;73.10;;;;;;5042726;28;20416;-79
2023/05/14 11:45:52;;;;;;;8.60;7.90;;;22.00;73.40;;;;;;5023626;28;20492;-78
2023/05/14 11:48:18;;;;;;;7.60;7.10;;;22.30;73.40;;;;;;5041928;28;20395;-79
2023/05/14 11:50:46;;;;;;;6.93;6.43;;;22.30;71.90;;;;;;5043303;28;20178;-79
2023/05/14 11:53:33;;;;;;;6.40;6.00;;;22.20;71.60;;;;;;5041184;28;20401;-79
2023/05/14 11:55:59;;;;;;;6.30;6.00;;;22.30;72.00;;;;;;5041440;28;20439;-78
2023/05/14 11:58:25;;;;;;;6.80;6.40;;;22.10;72.60;;;;;;5042700;28;20405;-78
2023/05/14 12:00:52;;;;;;;7.33;6.70;;;21.90;74.00;;;;;;5020744;28;20185;-78
2023/05/14 12:03:28;;;;;;;6.50;6.00;;;22.00;75.10;;;;;;5034023;28;20448;-79
2023/05/14 12:05:58;;;;;;;5.90;5.60;;;22.30;78.60;;;;;;5038930;28;20488;-77
2023/05/14 12:08:31;;;;;;;6.43;6.13;;;22.40;76.30;;;;;;5049332;28;20806;-77
2023/05/14 12:11:00;;;;;;;6.30;5.80;;;22.40;76.30;;;;;;5052240;28;20396;-77
2023/05/14 12:13:30;;;;;;;6.30;6.00;;;22.20;76.30;;;;;;5039391;28;20428;-79
2023/05/14 12:16:02;;;;;;;6.00;5.70;;;21.90;76.90;;;;;;5049216;28;20459;-78
2023/05/14 12:18:30;;;;;;;6.00;5.70;;;22.00;78.30;;;;;;5052290;28;20756;-79
2023/05/14 12:21:01;;;;;;;5.80;5.50;;;21.80;77.40;;;;;;5052433;28;20400;-78
2023/05/14 12:23:29;;;;;;;5.27;4.97;;;21.90;78.00;;;;;;5052479;28;20443;-77
2023/05/14 12:25:59;;;;;;;6.37;6.07;;;21.90;77.10;;;;;;5051964;28;20404;-76
2023/05/14 12:28:27;;;;;;;4.87;4.60;;;21.80;77.00;;;;;;5034950;28;20411;-75
2023/05/14 12:30:56;;;;;;;5.57;5.27;;;21.90;77.50;;;;;;5051846;28;20531;-75
2023/05/14 12:33:25;;;;;;;4.93;4.63;;;22.20;77.50;;;;;;5052575;28;20411;-76
2023/05/14 12:36:03;;;;;;;4.60;4.40;;;22.40;77.10;;;;;;5051805;28;20486;-76